createdAt,value
2018-08-19T06:30:36.968Z,39.30
2018-08-19T06:33:13.962Z,39.60
2018-08-19T06:35:50.373Z,39.30
2018-08-19T06:38:26.886Z,38.50
2018-08-19T06:41:05.443Z,38.40
2018-08-19T06:43:41.813Z,37.50
2018-08-19T06:46:18.179Z,36.90
2018-08-19T06:48:54.752Z,37.50
2018-08-19T06:51:31.200Z,37.60
2018-08-19T06:54:07.792Z,37.00
2018-08-19T06:56:44.362Z,35.30
2018-08-19T06:59:20.781Z,35.70
2018-08-19T07:01:57.193Z,35.80
2018-08-19T07:04:33.729Z,35.50
2018-08-19T07:07:11.865Z,34.80
2018-08-19T07:09:48.387Z,35.80
2018-08-19T07:12:24.834Z,36.50
2018-08-19T07:15:01.333Z,35.90
2018-08-19T07:17:37.661Z,36.10
2018-08-19T07:20:14.220Z,36.40
2018-08-19T07:22:50.775Z,36.10
2018-08-19T07:25:27.274Z,35.90
2018-08-19T07:28:03.756Z,36.50
2018-08-19T07:30:40.538Z,35.20
2018-08-19T07:33:16.970Z,35.20
2018-08-19T07:35:54.110Z,33.80
2018-08-19T07:38:30.482Z,32.40
2018-08-19T07:41:08.512Z,33.20
2018-08-19T07:43:44.818Z,33.80
2018-08-19T07:46:21.293Z,32.20
2018-08-19T07:48:57.699Z,33.20
2018-08-19T07:51:34.223Z,33.70
2018-08-19T07:54:10.727Z,33.40
2018-08-19T07:56:47.183Z,33.20
2018-08-19T07:59:23.747Z,32.70
2018-08-19T08:02:00.229Z,32.50
2018-08-19T08:04:41.164Z,32.00
2018-08-19T08:07:17.434Z,32.50
2018-08-19T08:09:54.928Z,32.00
2018-08-19T08:12:31.493Z,30.90
2018-08-19T08:15:08.700Z,29.60
2018-08-19T08:17:45.840Z,29.40
2018-08-19T08:20:22.368Z,28.10
2018-08-19T08:22:59.973Z,28.10
2018-08-19T08:25:36.307Z,29.50
2018-08-19T08:28:12.781Z,29.00
2018-08-19T08:30:49.266Z,27.00
2018-08-19T08:33:25.811Z,27.90
2018-08-19T08:36:02.224Z,30.80
2018-08-19T08:38:39.141Z,30.80
2018-08-19T08:41:16.436Z,30.40
2018-08-19T08:43:52.970Z,29.70
2018-08-19T08:46:32.016Z,28.40
2018-08-19T08:49:09.019Z,26.40
2018-08-19T08:51:45.299Z,25.60
2018-08-19T08:54:21.947Z,25.60
2018-08-19T08:56:58.880Z,27.90
2018-08-19T08:59:36.568Z,27.30
2018-08-19T09:02:13.578Z,27.50
2018-08-19T09:04:51.222Z,25.60
2018-08-19T09:07:28.534Z,26.40
2018-08-19T09:10:05.350Z,25.60
2018-08-19T09:12:49.166Z,25.80
2018-08-19T09:15:25.563Z,26.70
2018-08-19T09:18:01.913Z,27.50
2018-08-19T09:20:38.242Z,26.80
2018-08-19T09:23:14.902Z,26.50
2018-08-19T09:25:51.383Z,24.70
2018-08-19T09:28:27.943Z,23.80
2018-08-19T09:31:04.541Z,24.20
2018-08-19T09:33:40.852Z,25.30
2018-08-19T09:36:17.396Z,25.00
2018-08-19T09:38:53.893Z,26.00
2018-08-19T09:41:30.585Z,24.40
2018-08-19T09:44:07.523Z,24.60
2018-08-19T09:46:44.714Z,24.20
2018-08-19T09:49:21.086Z,24.50
2018-08-19T09:51:57.863Z,24.50
2018-08-19T09:54:36.475Z,24.40
2018-08-19T09:57:12.704Z,24.30
2018-08-19T09:59:49.101Z,24.10
2018-08-19T10:02:25.565Z,23.80
2018-08-19T10:05:01.996Z,23.60
2018-08-19T10:07:38.343Z,23.30
2018-08-19T10:10:14.911Z,23.60
2018-08-19T10:12:52.287Z,24.10
2018-08-19T10:15:28.740Z,23.90
2018-08-19T10:18:08.060Z,23.90
2018-08-19T10:20:44.525Z,24.70
2018-08-19T10:23:24.270Z,23.90
2018-08-19T10:26:00.784Z,23.80
2018-08-19T10:28:37.486Z,23.20
2018-08-19T10:31:20.746Z,23.70
2018-08-19T10:33:57.540Z,22.90
2018-08-19T10:36:34.095Z,22.80
2018-08-19T10:39:15.950Z,21.40
2018-08-19T10:41:53.012Z,22.30
2018-08-19T10:44:30.740Z,22.30
2018-08-19T10:47:07.422Z,22.30
2018-08-19T10:49:48.468Z,23.50
2018-08-19T10:52:28.720Z,21.90
2018-08-19T10:55:05.191Z,21.30
2018-08-19T10:57:42.052Z,20.30
2018-08-19T11:00:32.328Z,20.90
2018-08-19T11:03:14.541Z,21.80
2018-08-19T11:05:52.587Z,20.80
2018-08-19T11:08:28.878Z,20.60
2018-08-19T11:11:05.426Z,21.50
2018-08-19T11:13:41.978Z,21.00
2018-08-19T11:16:19.229Z,21.40
2018-08-19T11:18:55.831Z,20.80
2018-08-19T11:21:40.329Z,22.20
2018-08-19T11:24:21.024Z,20.80
2018-08-19T11:27:04.551Z,20.10
2018-08-19T11:29:42.140Z,20.00
2018-08-19T11:32:36.186Z,20.70
2018-08-19T11:35:12.728Z,21.70
2018-08-19T11:37:49.822Z,22.50
2018-08-19T11:40:26.245Z,22.20
2018-08-19T11:43:02.809Z,21.90
2018-08-19T11:45:39.247Z,22.50
2018-08-19T11:48:16.702Z,22.90
2018-08-19T11:50:53.760Z,22.20
2018-08-19T11:53:30.445Z,21.80
2018-08-19T11:56:06.981Z,23.10
2018-08-19T11:58:47.619Z,21.60
2018-08-19T12:01:24.137Z,22.10
2018-08-19T12:04:11.044Z,23.50
2018-08-19T12:06:47.471Z,22.90
2018-08-19T12:09:23.954Z,23.30
2018-08-19T12:12:01.447Z,23.40
2018-08-19T12:14:38.760Z,23.00
2018-08-19T12:17:15.251Z,23.50
2018-08-19T12:19:51.612Z,24.40
2018-08-19T12:22:28.533Z,25.30
2018-08-19T12:25:05.221Z,23.50
2018-08-19T12:27:41.689Z,23.90
2018-08-19T12:30:18.046Z,23.00
2018-08-19T12:33:10.280Z,23.50
2018-08-19T12:35:46.755Z,24.10
2018-08-19T12:38:23.265Z,24.50
2018-08-19T12:41:00.582Z,24.30
2018-08-19T12:43:37.269Z,23.40
2018-08-19T12:46:13.548Z,23.40
2018-08-19T12:48:50.058Z,23.70
2018-08-19T12:51:26.426Z,22.90
2018-08-19T12:54:04.215Z,21.80
2018-08-19T12:56:40.761Z,23.10
2018-08-19T12:59:17.099Z,21.80
2018-08-19T13:01:53.920Z,21.80
2018-08-19T13:04:30.443Z,21.60
2018-08-19T13:07:14.558Z,21.30
2018-08-19T13:09:51.736Z,21.20
2018-08-19T13:12:31.118Z,22.10
2018-08-19T13:15:07.382Z,21.30
2018-08-19T13:17:43.922Z,21.70
2018-08-19T13:20:21.831Z,23.40
2018-08-19T13:23:03.500Z,21.90
2018-08-19T13:25:39.822Z,20.90
2018-08-19T13:28:16.365Z,21.70
2018-08-19T13:30:52.718Z,21.30
2018-08-19T13:33:29.184Z,22.20
2018-08-19T13:36:05.680Z,22.20
2018-08-19T13:38:42.127Z,23.50
2018-08-19T13:41:18.485Z,22.40
2018-08-19T13:43:55.034Z,22.80
2018-08-19T13:46:31.373Z,23.20
2018-08-19T13:49:08.076Z,21.80
2018-08-19T13:51:44.406Z,21.90
2018-08-19T13:54:21.728Z,22.90
2018-08-19T13:56:58.028Z,23.10
2018-08-19T13:59:34.528Z,24.20
2018-08-19T14:02:11.058Z,22.40
2018-08-19T14:04:48.507Z,24.40
2018-08-19T14:07:28.631Z,23.20
2018-08-19T14:10:07.665Z,23.90
2018-08-19T14:12:44.374Z,24.00
2018-08-19T15:16:14.287Z,19.70
2018-08-19T15:18:57.727Z,20.40
2018-08-19T16:43:31.349Z,20.60
2018-08-19T16:46:07.939Z,21.30
2018-08-19T16:48:44.426Z,21.50
